createdAt,value
2022-12-01T00:02:00.042Z,2.98
2022-12-01T00:05:02.626Z,2.99
2022-12-01T00:08:05.876Z,2.99
2022-12-01T00:11:12.253Z,2.99
2022-12-01T00:14:16.611Z,2.99
2022-12-01T00:17:18.929Z,2.99
2022-12-01T00:20:21.326Z,3.00
2022-12-01T00:23:23.766Z,2.97
2022-12-01T00:26:27.101Z,3.01
2022-12-01T00:29:29.393Z,3.01
2022-12-01T00:32:31.907Z,3.01
2022-12-01T00:35:34.178Z,3.00
2022-12-01T00:38:37.413Z,3.01
2022-12-01T00:41:39.804Z,3.02
2022-12-01T00:44:42.331Z,3.01
2022-12-01T00:47:44.647Z,3.03
2022-12-01T00:50:47.982Z,3.01
2022-12-01T00:53:50.200Z,2.99
2022-12-01T00:56:52.522Z,2.99
2022-12-01T00:59:54.675Z,2.98
2022-12-01T01:02:56.933Z,2.97
2022-12-01T01:06:06.285Z,2.95
2022-12-01T01:09:11.524Z,2.96
2022-12-01T01:12:13.717Z,2.94
2022-12-01T01:15:21.894Z,2.93
2022-12-01T01:18:24.349Z,2.94
2022-12-01T01:21:27.826Z,2.94
2022-12-01T01:24:30.036Z,2.96
2022-12-01T01:27:32.182Z,2.96
2022-12-01T01:30:34.395Z,2.96
2022-12-01T01:33:37.019Z,2.97
2022-12-01T01:36:39.396Z,2.96
2022-12-01T01:39:41.798Z,2.96
2022-12-01T01:42:43.977Z,2.95
2022-12-01T01:45:46.328Z,2.97
2022-12-01T01:48:53.739Z,2.97
2022-12-01T01:51:57.856Z,2.96
2022-12-01T01:55:00.801Z,2.98
2022-12-01T01:58:10.552Z,2.98
2022-12-01T02:01:12.873Z,2.99
2022-12-01T02:04:16.205Z,2.99
2022-12-01T02:07:19.522Z,3.00
2022-12-01T02:15:03.962Z,2.99
2022-12-01T02:18:27.453Z,3.01
2022-12-01T02:21:32.402Z,2.97
2022-12-01T02:24:52.328Z,2.98
2022-12-01T02:28:07.614Z,2.97
2022-12-01T02:31:22.917Z,2.95
2022-12-01T02:34:34.948Z,2.94
2022-12-01T02:41:51.298Z,2.94
2022-12-01T02:44:55.085Z,2.95
2022-12-01T02:48:02.343Z,2.95
2022-12-01T02:51:09.948Z,2.96
2022-12-01T02:54:14.973Z,2.95
2022-12-01T02:57:17.692Z,2.94
2022-12-01T03:00:20.230Z,2.93
2022-12-01T03:03:35.430Z,2.92
2022-12-01T03:06:40.747Z,2.92
2022-12-01T03:10:04.118Z,2.91
2022-12-01T03:13:22.223Z,2.92
2022-12-01T03:16:34.029Z,2.92
2022-12-01T03:19:47.324Z,2.91
2022-12-01T03:22:54.952Z,2.89
2022-12-01T03:25:59.835Z,2.91
2022-12-01T03:29:08.554Z,2.91
2022-12-01T03:32:16.327Z,2.91
2022-12-01T03:35:36.327Z,2.90
2022-12-01T03:38:40.358Z,2.90
2022-12-01T03:41:49.054Z,2.88
2022-12-01T03:44:56.714Z,2.89
2022-12-01T03:47:59.294Z,2.88
2022-12-01T03:51:31.413Z,2.88
2022-12-01T03:54:45.559Z,2.88
2022-12-01T03:57:54.772Z,2.88
2022-12-01T04:00:58.801Z,2.88
2022-12-01T04:04:10.000Z,2.87
2022-12-01T04:07:13.784Z,2.86
2022-12-01T04:10:16.356Z,2.85
2022-12-01T04:13:25.783Z,2.85
2022-12-01T04:16:30.538Z,2.85
2022-12-01T04:19:33.013Z,2.83
2022-12-01T04:22:35.468Z,2.83
2022-12-01T04:25:37.976Z,2.83
2022-12-01T04:28:40.269Z,2.79
2022-12-01T04:31:43.266Z,2.80
2022-12-01T04:34:45.725Z,2.81
2022-12-01T04:37:48.038Z,2.82
2022-12-01T04:40:50.464Z,2.81
2022-12-01T04:43:54.877Z,2.81
2022-12-01T04:46:57.230Z,2.82
2022-12-01T04:50:00.805Z,2.81
2022-12-01T04:53:04.442Z,2.80
2022-12-01T04:56:07.490Z,2.78
2022-12-01T04:59:10.340Z,2.79
2022-12-01T05:02:12.752Z,2.79
2022-12-01T05:05:15.297Z,2.79
2022-12-01T05:08:18.008Z,2.79
2022-12-01T05:11:20.914Z,2.79
2022-12-01T05:14:23.280Z,2.79
2022-12-01T05:17:25.722Z,2.79
2022-12-01T05:20:47.004Z,2.78
2022-12-01T05:23:49.628Z,2.78
2022-12-01T05:26:51.993Z,2.77
2022-12-01T05:29:54.529Z,2.77
2022-12-01T05:32:56.949Z,2.75
2022-12-01T05:35:59.462Z,2.75
2022-12-01T05:39:01.789Z,2.74
2022-12-01T05:42:04.332Z,2.73
2022-12-01T05:45:07.464Z,2.72
2022-12-01T05:48:09.916Z,2.72
2022-12-01T05:51:14.855Z,2.72
2022-12-01T05:54:17.142Z,2.71
2022-12-01T05:57:19.488Z,2.71
2022-12-01T06:00:22.083Z,2.71
2022-12-01T06:03:24.483Z,2.70
2022-12-01T06:06:26.836Z,2.68
2022-12-01T06:09:29.225Z,2.70
2022-12-01T06:12:31.569Z,2.71
2022-12-01T06:15:33.975Z,2.70
2022-12-01T06:18:38.484Z,2.69
2022-12-01T06:21:40.898Z,2.71
2022-12-01T06:24:43.353Z,2.71
2022-12-01T06:27:45.731Z,2.71
2022-12-01T06:30:48.145Z,2.72
2022-12-01T06:33:50.518Z,2.72
2022-12-01T06:36:52.960Z,2.72
2022-12-01T06:39:55.422Z,2.72
2022-12-01T06:43:05.924Z,2.73
2022-12-01T06:46:08.273Z,2.75
2022-12-01T06:49:12.577Z,2.75
2022-12-01T06:52:15.018Z,2.76
2022-12-01T06:55:17.529Z,2.78
2022-12-01T06:58:20.375Z,2.79
2022-12-01T07:01:22.884Z,2.79
2022-12-01T07:04:25.368Z,2.79
2022-12-01T07:07:27.800Z,2.77
2022-12-01T07:10:30.299Z,2.78
2022-12-01T07:13:33.943Z,2.77
2022-12-01T07:16:36.497Z,2.77
2022-12-01T07:19:39.724Z,2.76
2022-12-01T07:22:43.301Z,2.79
2022-12-01T07:25:45.869Z,2.78
2022-12-01T07:28:48.439Z,2.80
2022-12-01T07:31:50.844Z,2.79
2022-12-01T07:34:53.193Z,2.81
2022-12-01T07:37:56.728Z,2.83
2022-12-01T07:41:07.062Z,2.81
2022-12-01T07:44:12.580Z,2.82
2022-12-01T07:47:15.100Z,2.84
2022-12-01T07:50:17.561Z,2.86
2022-12-01T07:53:19.865Z,2.85
2022-12-01T07:56:23.496Z,2.86
2022-12-01T07:59:26.173Z,2.88
2022-12-01T08:02:28.904Z,2.84
2022-12-01T08:05:31.209Z,2.88
2022-12-01T08:08:35.755Z,2.89
2022-12-01T08:11:38.136Z,2.89
2022-12-01T08:14:40.595Z,2.91
2022-12-01T08:17:43.108Z,2.92
2022-12-01T08:20:45.464Z,2.93
2022-12-01T08:23:48.134Z,2.95
2022-12-01T08:26:50.615Z,2.94
2022-12-01T08:29:53.286Z,2.97
2022-12-01T08:32:57.514Z,2.99
2022-12-01T08:36:02.727Z,3.01
2022-12-01T08:39:08.464Z,3.03
2022-12-01T08:42:10.803Z,3.07
2022-12-01T08:45:13.298Z,3.12
2022-12-01T08:48:15.708Z,3.15
2022-12-01T08:51:19.418Z,3.18
2022-12-01T08:54:22.033Z,3.18
2022-12-01T08:57:24.500Z,3.23
2022-12-01T09:00:26.888Z,3.21
2022-12-01T09:03:29.775Z,3.23
2022-12-01T09:06:34.707Z,3.25
2022-12-01T09:09:37.350Z,3.33
2022-12-01T09:12:39.728Z,3.34
2022-12-01T09:15:41.900Z,3.38
2022-12-01T09:18:45.839Z,3.37
2022-12-01T09:21:48.402Z,3.39
2022-12-01T09:24:50.711Z,3.43
2022-12-01T09:27:52.913Z,3.47
2022-12-01T09:30:55.146Z,3.53
2022-12-01T09:33:59.501Z,3.61
2022-12-01T09:37:01.714Z,3.63
2022-12-01T09:40:04.254Z,3.68
2022-12-01T09:43:16.843Z,3.73
2022-12-01T09:46:25.546Z,3.81
2022-12-01T09:49:48.172Z,3.99
2022-12-01T09:53:05.106Z,4.13
2022-12-01T09:56:16.653Z,4.19
2022-12-01T09:59:31.189Z,4.29
2022-12-01T10:02:42.727Z,4.31
2022-12-01T10:06:30.709Z,4.27
2022-12-01T10:09:32.938Z,4.38
2022-12-01T10:12:36.174Z,4.45
2022-12-01T10:15:51.735Z,4.54
2022-12-01T10:19:23.481Z,4.58
2022-12-01T10:22:55.024Z,4.72
2022-12-01T10:26:14.717Z,4.63
2022-12-01T10:29:47.963Z,4.51
2022-12-01T10:33:26.346Z,4.51
2022-12-01T10:36:30.724Z,4.54
2022-12-01T10:39:43.392Z,4.68
2022-12-01T10:42:48.591Z,4.77
2022-12-01T10:45:51.810Z,4.93
2022-12-01T10:48:56.851Z,5.07
2022-12-01T10:51:59.356Z,5.21
2022-12-01T10:55:03.731Z,5.33
2022-12-01T10:58:15.169Z,5.42
2022-12-01T11:01:23.581Z,5.39
2022-12-01T11:04:45.757Z,5.22
2022-12-01T11:07:48.378Z,5.14
2022-12-01T11:10:51.214Z,5.03
2022-12-01T11:13:55.227Z,4.99
2022-12-01T11:16:57.555Z,5.01
2022-12-01T11:20:27.020Z,5.08
2022-12-01T11:23:29.971Z,5.01
2022-12-01T11:26:33.626Z,5.05
2022-12-01T11:29:39.782Z,5.11
2022-12-01T11:32:56.770Z,5.12
2022-12-01T11:35:59.131Z,5.12
2022-12-01T11:39:02.859Z,5.08
2022-12-01T11:42:16.562Z,5.07
2022-12-01T11:45:21.490Z,5.11
2022-12-01T11:48:29.685Z,5.05
2022-12-01T11:51:37.873Z,4.95
2022-12-01T11:55:14.521Z,4.83
2022-12-01T11:58:16.841Z,4.76
2022-12-01T12:01:31.277Z,4.80
2022-12-01T12:05:04.173Z,4.71
2022-12-01T12:08:19.301Z,4.83
2022-12-01T12:11:28.618Z,4.85
2022-12-01T12:14:58.772Z,4.77
2022-12-01T12:21:34.079Z,4.87
2022-12-01T12:24:42.131Z,4.90
2022-12-01T12:28:11.160Z,5.07
2022-12-01T12:31:21.913Z,5.06
2022-12-01T12:34:38.839Z,5.20
2022-12-01T12:38:09.286Z,5.22
2022-12-01T12:41:11.282Z,5.17
2022-12-01T12:44:15.978Z,5.15
2022-12-01T12:48:03.354Z,5.20
2022-12-01T12:51:14.408Z,5.20
2022-12-01T12:54:33.199Z,5.24
2022-12-01T12:57:39.979Z,5.27
2022-12-01T13:00:52.202Z,5.23
2022-12-01T13:03:54.176Z,5.24
2022-12-01T13:07:02.269Z,5.29
2022-12-01T13:10:22.968Z,5.17
2022-12-01T13:13:59.571Z,5.24
2022-12-01T13:17:20.958Z,5.08
2022-12-01T13:20:28.905Z,4.99
2022-12-01T13:23:31.809Z,4.99
2022-12-01T13:26:37.777Z,4.87
2022-12-01T13:29:46.751Z,4.96
2022-12-01T13:32:49.854Z,4.97
2022-12-01T13:36:22.528Z,4.97
2022-12-01T13:39:28.903Z,5.01
2022-12-01T13:42:34.347Z,4.96
2022-12-01T13:45:38.639Z,4.90
2022-12-01T13:48:40.636Z,4.88
2022-12-01T13:52:18.914Z,4.89
2022-12-01T13:55:26.074Z,4.75
2022-12-01T13:58:33.893Z,4.75
2022-12-01T14:01:44.683Z,4.73
2022-12-01T14:04:47.578Z,4.73
2022-12-01T14:07:54.521Z,4.70
2022-12-01T14:11:28.816Z,4.70
2022-12-01T14:14:39.103Z,4.70
2022-12-01T14:17:41.769Z,4.68
2022-12-01T14:20:46.745Z,4.70
2022-12-01T14:24:05.169Z,4.70
2022-12-01T14:27:08.874Z,4.71
2022-12-01T14:30:39.199Z,4.69
2022-12-01T14:33:58.985Z,4.60
2022-12-01T14:37:07.246Z,4.51
2022-12-01T14:40:24.305Z,4.46
2022-12-01T14:43:46.927Z,4.38
2022-12-01T14:46:58.751Z,4.37
2022-12-01T14:50:10.244Z,4.34
2022-12-01T14:53:32.880Z,4.33
2022-12-01T14:56:37.681Z,4.33
2022-12-01T14:59:39.844Z,4.31
2022-12-01T15:03:06.825Z,4.28
2022-12-01T15:06:10.621Z,4.25
2022-12-01T15:09:36.506Z,4.20
2022-12-01T15:12:38.820Z,4.13
2022-12-01T15:15:54.589Z,4.06
2022-12-01T15:18:56.889Z,3.97
2022-12-01T15:22:05.034Z,3.91
2022-12-01T15:25:13.250Z,3.84
2022-12-01T15:28:21.351Z,3.78
2022-12-01T15:31:23.448Z,3.70
2022-12-01T15:34:35.161Z,3.63
2022-12-01T15:37:44.776Z,3.56
2022-12-01T15:44:26.098Z,3.45
2022-12-01T15:47:30.882Z,3.43
2022-12-01T15:50:46.227Z,3.37
2022-12-01T15:53:56.405Z,3.33
2022-12-01T15:56:59.490Z,3.31
2022-12-01T16:00:01.558Z,3.25
2022-12-01T16:03:03.811Z,3.21
2022-12-01T16:06:12.441Z,3.19
2022-12-01T16:09:21.016Z,3.18
2022-12-01T16:12:34.157Z,3.15
2022-12-01T16:15:44.312Z,3.10
2022-12-01T16:18:57.114Z,3.08
2022-12-01T16:22:10.733Z,2.99
2022-12-01T16:25:45.245Z,2.92
2022-12-01T16:28:48.566Z,2.82
2022-12-01T16:32:18.861Z,2.76
2022-12-01T16:35:23.833Z,2.68
2022-12-01T16:38:28.979Z,2.61
2022-12-01T16:41:38.269Z,2.55
2022-12-01T16:44:42.144Z,2.50
2022-12-01T16:47:46.635Z,2.45
2022-12-01T16:50:50.497Z,2.43
2022-12-01T16:53:52.702Z,2.41
2022-12-01T16:56:56.925Z,2.41
2022-12-01T16:59:59.497Z,2.41
2022-12-01T17:03:02.371Z,2.46
2022-12-01T17:06:05.223Z,2.52
2022-12-01T17:09:07.286Z,2.58
2022-12-01T17:12:10.309Z,2.60
2022-12-01T17:15:12.812Z,2.61
2022-12-01T17:18:17.472Z,2.62
2022-12-01T17:21:19.482Z,2.64
2022-12-01T17:24:21.463Z,2.63
2022-12-01T17:27:25.375Z,2.64
2022-12-01T17:30:27.876Z,2.58
2022-12-01T17:33:30.353Z,2.56
2022-12-01T17:36:32.416Z,2.53
2022-12-01T17:39:34.664Z,2.50
2022-12-01T17:42:37.148Z,2.48
2022-12-01T17:45:42.217Z,2.45
2022-12-01T17:48:46.424Z,2.42
2022-12-01T17:51:49.355Z,2.42
2022-12-01T17:54:51.926Z,2.42
2022-12-01T17:57:55.099Z,2.40
2022-12-01T18:00:57.328Z,2.37
2022-12-01T18:03:59.411Z,2.37
2022-12-01T18:07:01.662Z,2.33
2022-12-01T18:10:04.222Z,2.30
2022-12-01T18:13:06.660Z,2.26
2022-12-01T18:16:14.171Z,2.24
2022-12-01T18:19:16.557Z,2.19
2022-12-01T18:22:18.821Z,2.20
2022-12-01T18:25:21.391Z,2.18
2022-12-01T18:28:24.788Z,2.19
2022-12-01T18:31:31.813Z,2.17
2022-12-01T18:34:43.528Z,2.16
2022-12-01T18:37:45.862Z,2.14
2022-12-01T18:40:48.629Z,2.09
2022-12-01T18:43:56.108Z,2.04
2022-12-01T18:47:03.157Z,1.99
2022-12-01T18:50:06.564Z,1.95
2022-12-01T18:53:09.074Z,1.95
2022-12-01T18:56:12.358Z,1.93
2022-12-01T18:59:17.400Z,1.90
2022-12-01T19:02:20.416Z,1.93
2022-12-01T19:05:23.651Z,1.93
2022-12-01T19:08:27.333Z,1.93
2022-12-01T19:11:31.370Z,1.93
2022-12-01T19:14:34.280Z,1.92
2022-12-01T19:17:36.761Z,1.93
2022-12-01T19:20:39.276Z,1.90
2022-12-01T19:23:42.433Z,1.87
2022-12-01T19:26:45.222Z,1.86
2022-12-01T19:29:48.150Z,1.83
2022-12-01T19:32:52.164Z,1.81
2022-12-01T19:35:54.958Z,1.81
2022-12-01T19:39:00.483Z,1.82
2022-12-01T19:42:04.786Z,1.80
2022-12-01T19:45:10.763Z,1.84
2022-12-01T19:48:16.509Z,1.83
2022-12-01T19:51:21.620Z,1.87
2022-12-01T19:54:24.405Z,1.84
2022-12-01T19:57:27.120Z,1.85
2022-12-01T20:00:29.724Z,1.85
2022-12-01T20:03:31.821Z,1.87
2022-12-01T20:06:36.709Z,1.84
2022-12-01T20:09:44.334Z,1.85
2022-12-01T20:12:50.771Z,1.85
2022-12-01T20:15:53.282Z,1.85
2022-12-01T20:18:56.136Z,1.84
2022-12-01T20:21:58.947Z,1.85
2022-12-01T20:25:03.557Z,1.87
2022-12-01T20:28:06.422Z,1.80
2022-12-01T20:31:12.527Z,1.76
2022-12-01T20:34:21.588Z,1.75
2022-12-01T20:37:24.453Z,1.75
2022-12-01T20:40:27.065Z,1.69
2022-12-01T20:43:29.297Z,1.62
2022-12-01T20:46:32.303Z,1.58
2022-12-01T20:49:35.625Z,1.54
2022-12-01T20:52:41.874Z,1.50
2022-12-01T20:55:45.191Z,1.46
2022-12-01T20:58:49.274Z,1.45
2022-12-01T21:01:52.528Z,1.42
2022-12-01T21:04:58.972Z,1.43
2022-12-01T21:08:03.522Z,1.46
2022-12-01T21:11:08.738Z,1.43
2022-12-01T21:14:29.433Z,1.45
2022-12-01T21:17:37.840Z,1.49
2022-12-01T21:20:44.183Z,1.52
2022-12-01T21:23:46.573Z,1.56
2022-12-01T21:26:48.625Z,1.58
2022-12-01T21:29:50.958Z,1.59
2022-12-01T21:32:54.250Z,1.62
2022-12-01T21:35:56.446Z,1.63
2022-12-01T21:39:12.869Z,1.66
2022-12-01T21:42:19.733Z,1.71
2022-12-01T21:45:27.475Z,1.70
2022-12-01T21:48:36.566Z,1.73
2022-12-01T21:51:38.802Z,1.74
2022-12-01T21:54:40.790Z,1.75
2022-12-01T21:57:50.747Z,1.75
2022-12-01T22:00:56.087Z,1.73
2022-12-01T22:04:06.818Z,1.75
2022-12-01T22:07:09.549Z,1.76
2022-12-01T22:10:48.901Z,1.75
2022-12-01T22:13:59.655Z,1.77
2022-12-01T22:17:11.493Z,1.77
2022-12-01T22:20:22.593Z,1.75
2022-12-01T22:23:33.942Z,1.72
2022-12-01T22:26:41.620Z,1.72
2022-12-01T22:29:45.939Z,1.73
2022-12-01T22:32:58.613Z,1.74
2022-12-01T22:36:00.629Z,1.74
2022-12-01T22:39:11.437Z,1.72
2022-12-01T22:42:25.123Z,1.73
2022-12-01T22:45:27.228Z,1.70
2022-12-01T22:48:56.998Z,1.66
2022-12-01T22:52:13.979Z,1.62
2022-12-01T22:55:19.482Z,1.63
2022-12-01T22:58:28.006Z,1.61
2022-12-01T23:01:32.824Z,1.59
2022-12-01T23:04:42.690Z,1.57
2022-12-01T23:07:46.017Z,1.53
2022-12-01T23:10:48.517Z,1.51
2022-12-01T23:13:50.799Z,1.49
2022-12-01T23:17:04.527Z,1.47
2022-12-01T23:20:26.208Z,1.45
2022-12-01T23:23:34.965Z,1.45
2022-12-01T23:26:36.940Z,1.44
2022-12-01T23:29:39.068Z,1.41
2022-12-01T23:32:41.564Z,1.41
2022-12-01T23:35:57.888Z,1.42
2022-12-01T23:39:04.533Z,1.41
2022-12-01T23:42:09.243Z,1.42
2022-12-01T23:45:21.759Z,1.39
2022-12-01T23:48:29.678Z,1.39
2022-12-01T23:51:36.210Z,1.39
2022-12-01T23:54:38.985Z,1.37
2022-12-01T23:57:40.946Z,1.37
